sensor_id;sensor_type;location;lat;lon;timestamp;temperature;humidity
25923;DHT22;13725;51.170;4.442;2023-12-28T00:00:49;10.90;99.90
25923;DHT22;13725;51.170;4.442;2023-12-28T00:03:15;10.90;99.90
25923;DHT22;13725;51.170;4.442;2023-12-28T00:05:40;10.90;99.90
25923;DHT22;13725;51.170;4.442;2023-12-28T00:08:06;10.90;99.90
25923;DHT22;13725;51.170;4.442;2023-12-28T00:10:32;10.90;99.90
25923;DHT22;13725;51.170;4.442;2023-12-28T00:12:59;10.80;99.90
25923;DHT22;13725;51.170;4.442;2023-12-28T00:15:25;10.80;99.90
25923;DHT22;13725;51.170;4.442;2023-12-28T00:17:50;10.70;99.90
25923;DHT22;13725;51.170;4.442;2023-12-28T00:20:16;10.80;99.90
25923;DHT22;13725;51.170;4.442;2023-12-28T00:22:44;10.80;99.90
25923;DHT22;13725;51.170;4.442;2023-12-28T00:25:10;10.70;99.90
25923;DHT22;13725;51.170;4.442;2023-12-28T00:27:35;10.70;99.90
25923;DHT22;13725;51.170;4.442;2023-12-28T00:30:05;10.70;99.90
25923;DHT22;13725;51.170;4.442;2023-12-28T00:32:31;10.70;99.90
25923;DHT22;13725;51.170;4.442;2023-12-28T00:34:57;10.70;99.90
25923;DHT22;13725;51.170;4.442;2023-12-28T00:37:22;10.70;99.90
25923;DHT22;13725;51.170;4.442;2023-12-28T00:39:49;10.80;99.90
25923;DHT22;13725;51.170;4.442;2023-12-28T00:42:17;10.80;99.90
25923;DHT22;13725;51.170;4.442;2023-12-28T00:44:44;10.80;99.90
25923;DHT22;13725;51.170;4.442;2023-12-28T00:47:13;10.70;99.90
25923;DHT22;13725;51.170;4.442;2023-12-28T00:49:39;10.70;99.90
25923;DHT22;13725;51.170;4.442;2023-12-28T00:52:05;10.70;99.90
25923;DHT22;13725;51.170;4.442;2023-12-28T00:54:31;10.70;99.90
25923;DHT22;13725;51.170;4.442;2023-12-28T00:56:56;10.70;99.90
25923;DHT22;13725;51.170;4.442;2023-12-28T00:59:22;10.80;99.90
25923;DHT22;13725;51.170;4.442;2023-12-28T01:01:48;10.70;99.90
25923;DHT22;13725;51.170;4.442;2023-12-28T01:04:14;10.80;99.90
25923;DHT22;13725;51.170;4.442;2023-12-28T01:06:40;10.70;99.90
25923;DHT22;13725;51.170;4.442;2023-12-28T01:09:06;10.80;99.90
25923;DHT22;13725;51.170;4.442;2023-12-28T01:11:32;10.80;99.90
25923;DHT22;13725;51.170;4.442;2023-12-28T01:13:59;10.90;99.90
25923;DHT22;13725;51.170;4.442;2023-12-28T01:16:25;10.80;99.90
25923;DHT22;13725;51.170;4.442;2023-12-28T01:18:51;10.80;99.90
25923;DHT22;13725;51.170;4.442;2023-12-28T01:21:18;10.80;99.90
25923;DHT22;13725;51.170;4.442;2023-12-28T01:23:43;10.80;99.90
25923;DHT22;13725;51.170;4.442;2023-12-28T01:26:13;10.70;99.90
25923;DHT22;13725;51.170;4.442;2023-12-28T01:28:42;10.70;99.90
25923;DHT22;13725;51.170;4.442;2023-12-28T01:31:09;10.80;99.90
25923;DHT22;13725;51.170;4.442;2023-12-28T01:33:34;10.80;99.90
25923;DHT22;13725;51.170;4.442;2023-12-28T01:36:01;10.70;99.90
25923;DHT22;13725;51.170;4.442;2023-12-28T01:38:28;10.70;99.90
25923;DHT22;13725;51.170;4.442;2023-12-28T01:40:54;10.90;99.90
25923;DHT22;13725;51.170;4.442;2023-12-28T01:43:20;10.80;99.90
25923;DHT22;13725;51.170;4.442;2023-12-28T01:45:47;10.80;99.90
25923;DHT22;13725;51.170;4.442;2023-12-28T01:48:15;10.80;99.90
25923;DHT22;13725;51.170;4.442;2023-12-28T01:50:41;10.80;99.90
25923;DHT22;13725;51.170;4.442;2023-12-28T01:53:07;10.90;99.90
25923;DHT22;13725;51.170;4.442;2023-12-28T01:55:34;10.80;99.90
25923;DHT22;13725;51.170;4.442;2023-12-28T01:57:59;10.70;99.90
25923;DHT22;13725;51.170;4.442;2023-12-28T02:00:26;10.60;99.90
25923;DHT22;13725;51.170;4.442;2023-12-28T02:02:54;10.60;99.90
25923;DHT22;13725;51.170;4.442;2023-12-28T02:05:22;10.70;99.90
25923;DHT22;13725;51.170;4.442;2023-12-28T02:07:48;10.70;99.90
25923;DHT22;13725;51.170;4.442;2023-12-28T02:10:14;10.80;99.90
25923;DHT22;13725;51.170;4.442;2023-12-28T02:12:40;10.70;99.90
25923;DHT22;13725;51.170;4.442;2023-12-28T02:15:06;10.70;99.90
25923;DHT22;13725;51.170;4.442;2023-12-28T02:17:52;10.70;99.90
25923;DHT22;13725;51.170;4.442;2023-12-28T02:20:21;10.70;99.90
25923;DHT22;13725;51.170;4.442;2023-12-28T02:22:48;10.60;99.90
25923;DHT22;13725;51.170;4.442;2023-12-28T02:25:15;10.60;99.90
25923;DHT22;13725;51.170;4.442;2023-12-28T02:27:45;10.60;99.90
25923;DHT22;13725;51.170;4.442;2023-12-28T02:30:16;10.70;99.90
25923;DHT22;13725;51.170;4.442;2023-12-28T02:35:32;10.60;99.90
25923;DHT22;13725;51.170;4.442;2023-12-28T02:38:02;10.60;99.90
25923;DHT22;13725;51.170;4.442;2023-12-28T02:40:32;10.60;99.90
25923;DHT22;13725;51.170;4.442;2023-12-28T02:43:01;10.50;99.90
25923;DHT22;13725;51.170;4.442;2023-12-28T02:45:27;10.50;99.90
25923;DHT22;13725;51.170;4.442;2023-12-28T02:47:55;10.60;99.90
25923;DHT22;13725;51.170;4.442;2023-12-28T02:50:21;10.60;99.90
25923;DHT22;13725;51.170;4.442;2023-12-28T02:52:47;10.60;99.90
25923;DHT22;13725;51.170;4.442;2023-12-28T02:55:14;10.60;99.90
25923;DHT22;13725;51.170;4.442;2023-12-28T02:57:40;10.50;99.90
25923;DHT22;13725;51.170;4.442;2023-12-28T03:00:06;10.50;99.90
25923;DHT22;13725;51.170;4.442;2023-12-28T03:02:36;10.60;99.90
25923;DHT22;13725;51.170;4.442;2023-12-28T03:05:05;10.70;99.90
25923;DHT22;13725;51.170;4.442;2023-12-28T03:07:34;10.70;99.90
25923;DHT22;13725;51.170;4.442;2023-12-28T03:10:01;10.70;99.90
25923;DHT22;13725;51.170;4.442;2023-12-28T03:12:28;10.70;99.90
25923;DHT22;13725;51.170;4.442;2023-12-28T03:14:55;10.70;99.90
25923;DHT22;13725;51.170;4.442;2023-12-28T03:17:26;10.60;99.90
25923;DHT22;13725;51.170;4.442;2023-12-28T03:19:54;10.70;99.90
25923;DHT22;13725;51.170;4.442;2023-12-28T03:22:20;10.70;99.90
25923;DHT22;13725;51.170;4.442;2023-12-28T03:24:46;10.80;99.90
25923;DHT22;13725;51.170;4.442;2023-12-28T03:27:12;10.80;99.90
25923;DHT22;13725;51.170;4.442;2023-12-28T03:29:38;10.80;99.90
25923;DHT22;13725;51.170;4.442;2023-12-28T03:32:04;10.70;99.90
25923;DHT22;13725;51.170;4.442;2023-12-28T03:34:30;10.70;99.90
25923;DHT22;13725;51.170;4.442;2023-12-28T03:36:57;10.80;99.90
25923;DHT22;13725;51.170;4.442;2023-12-28T03:39:23;10.80;99.90
25923;DHT22;13725;51.170;4.442;2023-12-28T03:41:50;10.90;99.90
25923;DHT22;13725;51.170;4.442;2023-12-28T03:44:19;11.00;99.90
25923;DHT22;13725;51.170;4.442;2023-12-28T03:46:47;11.00;99.90
25923;DHT22;13725;51.170;4.442;2023-12-28T03:49:16;11.00;99.90
25923;DHT22;13725;51.170;4.442;2023-12-28T03:51:42;11.00;99.90
25923;DHT22;13725;51.170;4.442;2023-12-28T03:54:08;11.00;99.90
25923;DHT22;13725;51.170;4.442;2023-12-28T03:56:35;11.10;99.90
25923;DHT22;13725;51.170;4.442;2023-12-28T03:59:01;11.10;99.90
25923;DHT22;13725;51.170;4.442;2023-12-28T04:01:27;11.10;99.90
25923;DHT22;13725;51.170;4.442;2023-12-28T04:03:53;11.10;99.90
25923;DHT22;13725;51.170;4.442;2023-12-28T04:06:18;11.00;99.90
25923;DHT22;13725;51.170;4.442;2023-12-28T04:08:44;11.00;99.90
25923;DHT22;13725;51.170;4.442;2023-12-28T04:11:10;10.90;99.90
25923;DHT22;13725;51.170;4.442;2023-12-28T04:13:36;10.90;99.90
25923;DHT22;13725;51.170;4.442;2023-12-28T04:16:02;10.80;99.90
25923;DHT22;13725;51.170;4.442;2023-12-28T04:18:28;10.70;99.90
25923;DHT22;13725;51.170;4.442;2023-12-28T04:20:54;10.70;99.90
25923;DHT22;13725;51.170;4.442;2023-12-28T04:23:20;10.80;99.90
25923;DHT22;13725;51.170;4.442;2023-12-28T04:25:47;10.80;99.90
25923;DHT22;13725;51.170;4.442;2023-12-28T04:28:14;10.80;99.90
25923;DHT22;13725;51.170;4.442;2023-12-28T04:30:40;10.90;99.90
25923;DHT22;13725;51.170;4.442;2023-12-28T04:33:06;11.00;99.90
25923;DHT22;13725;51.170;4.442;2023-12-28T04:35:33;11.10;99.90
25923;DHT22;13725;51.170;4.442;2023-12-28T04:38:00;11.00;99.90
25923;DHT22;13725;51.170;4.442;2023-12-28T04:40:25;11.10;99.90
25923;DHT22;13725;51.170;4.442;2023-12-28T04:42:51;11.00;99.90
25923;DHT22;13725;51.170;4.442;2023-12-28T04:45:18;11.00;99.90
25923;DHT22;13725;51.170;4.442;2023-12-28T04:47:43;11.00;99.90
25923;DHT22;13725;51.170;4.442;2023-12-28T04:50:09;11.10;99.90
25923;DHT22;13725;51.170;4.442;2023-12-28T04:52:35;11.10;99.90
25923;DHT22;13725;51.170;4.442;2023-12-28T04:55:01;11.10;99.90
25923;DHT22;13725;51.170;4.442;2023-12-28T04:57:27;11.10;99.90
25923;DHT22;13725;51.170;4.442;2023-12-28T04:59:53;11.00;99.90
25923;DHT22;13725;51.170;4.442;2023-12-28T05:02:21;10.90;99.90
25923;DHT22;13725;51.170;4.442;2023-12-28T05:04:46;10.80;99.90
25923;DHT22;13725;51.170;4.442;2023-12-28T05:07:13;10.70;99.90
25923;DHT22;13725;51.170;4.442;2023-12-28T05:09:39;10.70;99.90
25923;DHT22;13725;51.170;4.442;2023-12-28T05:12:05;10.80;99.90
25923;DHT22;13725;51.170;4.442;2023-12-28T05:14:31;11.00;99.90
25923;DHT22;13725;51.170;4.442;2023-12-28T05:16:56;11.00;99.90
25923;DHT22;13725;51.170;4.442;2023-12-28T05:19:22;11.00;99.90
25923;DHT22;13725;51.170;4.442;2023-12-28T05:21:48;11.00;99.90
25923;DHT22;13725;51.170;4.442;2023-12-28T05:24:18;11.10;99.90
25923;DHT22;13725;51.170;4.442;2023-12-28T05:26:46;11.00;99.90
25923;DHT22;13725;51.170;4.442;2023-12-28T05:29:12;11.00;99.90
25923;DHT22;13725;51.170;4.442;2023-12-28T05:31:38;10.90;99.90
25923;DHT22;13725;51.170;4.442;2023-12-28T05:34:03;10.80;99.90
25923;DHT22;13725;51.170;4.442;2023-12-28T05:36:30;10.80;99.90
25923;DHT22;13725;51.170;4.442;2023-12-28T05:38:56;10.70;99.90
25923;DHT22;13725;51.170;4.442;2023-12-28T05:41:23;10.70;99.90
25923;DHT22;13725;51.170;4.442;2023-12-28T05:43:48;10.60;99.90
25923;DHT22;13725;51.170;4.442;2023-12-28T05:46:16;10.60;99.90
25923;DHT22;13725;51.170;4.442;2023-12-28T05:48:42;10.50;99.90
25923;DHT22;13725;51.170;4.442;2023-12-28T05:51:08;10.40;99.90
25923;DHT22;13725;51.170;4.442;2023-12-28T05:53:35;10.40;99.90
25923;DHT22;13725;51.170;4.442;2023-12-28T05:56:01;10.40;99.90
25923;DHT22;13725;51.170;4.442;2023-12-28T05:58:29;10.50;99.90
25923;DHT22;13725;51.170;4.442;2023-12-28T06:00:55;10.50;99.90
25923;DHT22;13725;51.170;4.442;2023-12-28T06:03:20;10.50;99.90
25923;DHT22;13725;51.170;4.442;2023-12-28T06:05:46;10.40;99.90
25923;DHT22;13725;51.170;4.442;2023-12-28T06:08:12;10.50;99.90
25923;DHT22;13725;51.170;4.442;2023-12-28T06:10:38;10.50;99.90
25923;DHT22;13725;51.170;4.442;2023-12-28T06:13:04;10.50;99.90
25923;DHT22;13725;51.170;4.442;2023-12-28T06:15:30;10.50;99.90
25923;DHT22;13725;51.170;4.442;2023-12-28T06:17:56;10.50;99.90
25923;DHT22;13725;51.170;4.442;2023-12-28T06:20:22;10.60;99.90
25923;DHT22;13725;51.170;4.442;2023-12-28T06:22:47;10.70;99.90
25923;DHT22;13725;51.170;4.442;2023-12-28T06:25:14;10.70;99.90
25923;DHT22;13725;51.170;4.442;2023-12-28T06:27:40;10.70;99.90
25923;DHT22;13725;51.170;4.442;2023-12-28T06:30:06;10.70;99.90
25923;DHT22;13725;51.170;4.442;2023-12-28T06:32:32;10.60;99.90
25923;DHT22;13725;51.170;4.442;2023-12-28T06:34:58;10.60;99.90
25923;DHT22;13725;51.170;4.442;2023-12-28T06:37:23;10.50;99.90
25923;DHT22;13725;51.170;4.442;2023-12-28T06:39:49;10.40;99.90
25923;DHT22;13725;51.170;4.442;2023-12-28T06:42:15;10.40;99.90
25923;DHT22;13725;51.170;4.442;2023-12-28T06:44:40;10.40;99.90
25923;DHT22;13725;51.170;4.442;2023-12-28T06:47:06;10.50;99.90
25923;DHT22;13725;51.170;4.442;2023-12-28T06:49:32;10.50;99.90
25923;DHT22;13725;51.170;4.442;2023-12-28T06:51:58;10.50;99.90
25923;DHT22;13725;51.170;4.442;2023-12-28T06:54:23;10.40;99.90
25923;DHT22;13725;51.170;4.442;2023-12-28T06:56:49;10.40;99.90
25923;DHT22;13725;51.170;4.442;2023-12-28T06:59:17;10.30;99.90
25923;DHT22;13725;51.170;4.442;2023-12-28T07:01:43;10.30;99.90
25923;DHT22;13725;51.170;4.442;2023-12-28T07:04:09;10.20;99.90
25923;DHT22;13725;51.170;4.442;2023-12-28T07:06:35;10.30;99.90
25923;DHT22;13725;51.170;4.442;2023-12-28T07:09:01;10.30;99.90
25923;DHT22;13725;51.170;4.442;2023-12-28T07:11:27;10.30;99.90
25923;DHT22;13725;51.170;4.442;2023-12-28T07:13:53;10.20;99.90
25923;DHT22;13725;51.170;4.442;2023-12-28T07:16:19;10.20;99.90
25923;DHT22;13725;51.170;4.442;2023-12-28T07:18:45;10.30;99.90
25923;DHT22;13725;51.170;4.442;2023-12-28T07:21:11;10.40;99.90
25923;DHT22;13725;51.170;4.442;2023-12-28T07:23:37;10.30;99.90
25923;DHT22;13725;51.170;4.442;2023-12-28T07:26:04;10.20;99.90
25923;DHT22;13725;51.170;4.442;2023-12-28T07:28:30;10.20;99.90
25923;DHT22;13725;51.170;4.442;2023-12-28T07:30:56;10.20;99.90
25923;DHT22;13725;51.170;4.442;2023-12-28T07:33:22;10.20;99.90
25923;DHT22;13725;51.170;4.442;2023-12-28T07:35:47;10.20;99.90
25923;DHT22;13725;51.170;4.442;2023-12-28T07:38:13;10.10;99.90
25923;DHT22;13725;51.170;4.442;2023-12-28T07:40:39;10.10;99.90
25923;DHT22;13725;51.170;4.442;2023-12-28T07:43:06;10.20;99.90
25923;DHT22;13725;51.170;4.442;2023-12-28T07:45:32;10.40;99.90
25923;DHT22;13725;51.170;4.442;2023-12-28T07:48:01;10.40;99.90
25923;DHT22;13725;51.170;4.442;2023-12-28T07:50:27;10.40;99.90
25923;DHT22;13725;51.170;4.442;2023-12-28T07:52:53;10.50;99.90
25923;DHT22;13725;51.170;4.442;2023-12-28T07:55:20;10.60;99.90
25923;DHT22;13725;51.170;4.442;2023-12-28T07:57:46;10.60;99.90
25923;DHT22;13725;51.170;4.442;2023-12-28T08:00:13;10.80;99.90
25923;DHT22;13725;51.170;4.442;2023-12-28T08:02:41;10.70;99.90
25923;DHT22;13725;51.170;4.442;2023-12-28T08:05:08;10.70;99.90
25923;DHT22;13725;51.170;4.442;2023-12-28T08:07:34;10.70;99.90
25923;DHT22;13725;51.170;4.442;2023-12-28T08:10:00;10.80;99.90
25923;DHT22;13725;51.170;4.442;2023-12-28T08:12:26;10.70;99.90
25923;DHT22;13725;51.170;4.442;2023-12-28T08:14:54;10.70;99.90
25923;DHT22;13725;51.170;4.442;2023-12-28T08:17:19;10.70;99.90
25923;DHT22;13725;51.170;4.442;2023-12-28T08:19:46;10.80;99.90
25923;DHT22;13725;51.170;4.442;2023-12-28T08:22:12;10.80;99.90
25923;DHT22;13725;51.170;4.442;2023-12-28T08:24:38;10.90;99.90
25923;DHT22;13725;51.170;4.442;2023-12-28T08:27:04;10.80;99.90
25923;DHT22;13725;51.170;4.442;2023-12-28T08:29:29;10.80;99.90
25923;DHT22;13725;51.170;4.442;2023-12-28T08:31:55;10.80;99.90
25923;DHT22;13725;51.170;4.442;2023-12-28T08:34:21;10.90;99.90
25923;DHT22;13725;51.170;4.442;2023-12-28T08:36:47;11.20;99.90
25923;DHT22;13725;51.170;4.442;2023-12-28T08:39:13;11.50;99.90
25923;DHT22;13725;51.170;4.442;2023-12-28T08:41:39;11.50;99.90
25923;DHT22;13725;51.170;4.442;2023-12-28T08:44:05;11.70;99.90
25923;DHT22;13725;51.170;4.442;2023-12-28T08:46:30;12.00;99.90
25923;DHT22;13725;51.170;4.442;2023-12-28T08:48:56;11.90;99.90
25923;DHT22;13725;51.170;4.442;2023-12-28T08:51:22;12.10;99.90
25923;DHT22;13725;51.170;4.442;2023-12-28T08:53:48;12.10;99.90
25923;DHT22;13725;51.170;4.442;2023-12-28T08:56:17;11.90;99.90
25923;DHT22;13725;51.170;4.442;2023-12-28T08:58:44;11.70;99.90
25923;DHT22;13725;51.170;4.442;2023-12-28T09:01:16;11.60;99.90
25923;DHT22;13725;51.170;4.442;2023-12-28T09:03:42;11.70;99.90
25923;DHT22;13725;51.170;4.442;2023-12-28T09:06:08;11.80;99.90
25923;DHT22;13725;51.170;4.442;2023-12-28T09:08:34;11.90;99.90
25923;DHT22;13725;51.170;4.442;2023-12-28T09:11:00;11.80;99.90
25923;DHT22;13725;51.170;4.442;2023-12-28T09:13:26;11.70;99.90
25923;DHT22;13725;51.170;4.442;2023-12-28T09:15:52;11.70;99.90
25923;DHT22;13725;51.170;4.442;2023-12-28T09:18:18;11.70;99.90
25923;DHT22;13725;51.170;4.442;2023-12-28T09:20:44;11.60;99.90
25923;DHT22;13725;51.170;4.442;2023-12-28T09:23:10;11.70;99.90
25923;DHT22;13725;51.170;4.442;2023-12-28T09:25:36;11.60;99.90
25923;DHT22;13725;51.170;4.442;2023-12-28T09:28:11;11.50;99.90
25923;DHT22;13725;51.170;4.442;2023-12-28T09:30:38;11.50;99.90
25923;DHT22;13725;51.170;4.442;2023-12-28T09:33:04;11.40;99.90
25923;DHT22;13725;51.170;4.442;2023-12-28T09:35:30;11.50;99.90
25923;DHT22;13725;51.170;4.442;2023-12-28T09:37:56;11.60;99.90
25923;DHT22;13725;51.170;4.442;2023-12-28T09:40:22;11.50;99.90
25923;DHT22;13725;51.170;4.442;2023-12-28T09:43:03;11.60;99.90
25923;DHT22;13725;51.170;4.442;2023-12-28T09:45:32;11.60;99.90
25923;DHT22;13725;51.170;4.442;2023-12-28T09:47:59;11.60;99.90
25923;DHT22;13725;51.170;4.442;2023-12-28T09:50:25;11.70;99.90
25923;DHT22;13725;51.170;4.442;2023-12-28T09:52:53;11.80;99.90
25923;DHT22;13725;51.170;4.442;2023-12-28T09:55:19;11.80;99.90
25923;DHT22;13725;51.170;4.442;2023-12-28T09:57:47;12.00;99.90
25923;DHT22;13725;51.170;4.442;2023-12-28T10:00:19;12.10;99.90
25923;DHT22;13725;51.170;4.442;2023-12-28T10:02:46;12.30;99.90
25923;DHT22;13725;51.170;4.442;2023-12-28T10:05:14;12.20;99.90
25923;DHT22;13725;51.170;4.442;2023-12-28T10:07:47;12.20;99.90
25923;DHT22;13725;51.170;4.442;2023-12-28T10:10:14;12.30;99.90
25923;DHT22;13725;51.170;4.442;2023-12-28T10:12:39;12.10;99.90
25923;DHT22;13725;51.170;4.442;2023-12-28T10:15:06;12.20;99.90
25923;DHT22;13725;51.170;4.442;2023-12-28T10:17:35;12.00;99.90
25923;DHT22;13725;51.170;4.442;2023-12-28T10:20:02;12.20;99.90
25923;DHT22;13725;51.170;4.442;2023-12-28T10:22:30;12.30;99.90
25923;DHT22;13725;51.170;4.442;2023-12-28T10:24:56;12.40;99.90
25923;DHT22;13725;51.170;4.442;2023-12-28T10:27:23;12.40;99.90
25923;DHT22;13725;51.170;4.442;2023-12-28T10:29:49;12.70;99.90
25923;DHT22;13725;51.170;4.442;2023-12-28T10:32:14;12.60;99.90
25923;DHT22;13725;51.170;4.442;2023-12-28T10:34:40;12.80;99.90
25923;DHT22;13725;51.170;4.442;2023-12-28T10:37:06;12.80;99.90
25923;DHT22;13725;51.170;4.442;2023-12-28T10:39:34;13.10;99.90
25923;DHT22;13725;51.170;4.442;2023-12-28T10:42:03;13.50;99.90
25923;DHT22;13725;51.170;4.442;2023-12-28T10:44:32;13.80;99.90
25923;DHT22;13725;51.170;4.442;2023-12-28T10:47:01;14.00;99.90
25923;DHT22;13725;51.170;4.442;2023-12-28T10:49:30;14.40;99.90
25923;DHT22;13725;51.170;4.442;2023-12-28T10:51:59;14.40;99.90
25923;DHT22;13725;51.170;4.442;2023-12-28T10:57:27;13.80;99.90
25923;DHT22;13725;51.170;4.442;2023-12-28T11:00:10;13.90;99.90
25923;DHT22;13725;51.170;4.442;2023-12-28T11:02:44;13.80;99.90
25923;DHT22;13725;51.170;4.442;2023-12-28T11:05:13;13.60;99.90
25923;DHT22;13725;51.170;4.442;2023-12-28T11:07:41;13.30;99.90
25923;DHT22;13725;51.170;4.442;2023-12-28T11:10:11;13.00;99.90
25923;DHT22;13725;51.170;4.442;2023-12-28T11:12:43;12.90;99.90
25923;DHT22;13725;51.170;4.442;2023-12-28T11:15:10;12.80;99.90
25923;DHT22;13725;51.170;4.442;2023-12-28T11:17:37;12.70;99.90
25923;DHT22;13725;51.170;4.442;2023-12-28T11:20:04;12.70;99.90
25923;DHT22;13725;51.170;4.442;2023-12-28T11:22:34;12.80;99.90
25923;DHT22;13725;51.170;4.442;2023-12-28T11:25:00;12.70;99.90
25923;DHT22;13725;51.170;4.442;2023-12-28T11:27:34;12.80;99.90
25923;DHT22;13725;51.170;4.442;2023-12-28T11:30:00;12.70;99.90
25923;DHT22;13725;51.170;4.442;2023-12-28T11:32:26;12.50;99.90
25923;DHT22;13725;51.170;4.442;2023-12-28T11:34:57;12.50;99.90
25923;DHT22;13725;51.170;4.442;2023-12-28T11:37:26;12.60;99.90
25923;DHT22;13725;51.170;4.442;2023-12-28T11:39:52;12.80;99.90
25923;DHT22;13725;51.170;4.442;2023-12-28T11:42:22;12.70;99.90
25923;DHT22;13725;51.170;4.442;2023-12-28T11:44:56;12.70;99.90
25923;DHT22;13725;51.170;4.442;2023-12-28T11:47:24;12.70;99.90
25923;DHT22;13725;51.170;4.442;2023-12-28T11:49:50;12.80;99.90
25923;DHT22;13725;51.170;4.442;2023-12-28T11:52:28;12.70;99.90
25923;DHT22;13725;51.170;4.442;2023-12-28T11:54:54;12.70;99.90
25923;DHT22;13725;51.170;4.442;2023-12-28T11:57:21;12.60;99.90
25923;DHT22;13725;51.170;4.442;2023-12-28T11:59:52;12.50;99.90
25923;DHT22;13725;51.170;4.442;2023-12-28T12:02:20;12.60;99.90
25923;DHT22;13725;51.170;4.442;2023-12-28T12:04:46;12.50;99.90
25923;DHT22;13725;51.170;4.442;2023-12-28T12:07:12;12.40;99.90
25923;DHT22;13725;51.170;4.442;2023-12-28T12:09:37;12.40;99.90
25923;DHT22;13725;51.170;4.442;2023-12-28T12:12:04;12.40;99.90
25923;DHT22;13725;51.170;4.442;2023-12-28T12:14:30;12.40;99.90
25923;DHT22;13725;51.170;4.442;2023-12-28T12:17:00;12.40;99.90
25923;DHT22;13725;51.170;4.442;2023-12-28T12:19:26;12.30;99.90
25923;DHT22;13725;51.170;4.442;2023-12-28T12:21:53;12.40;99.90
25923;DHT22;13725;51.170;4.442;2023-12-28T12:24:19;12.40;99.90
25923;DHT22;13725;51.170;4.442;2023-12-28T12:26:49;12.40;99.90
25923;DHT22;13725;51.170;4.442;2023-12-28T12:29:17;12.50;99.90
25923;DHT22;13725;51.170;4.442;2023-12-28T12:31:44;12.60;99.90
25923;DHT22;13725;51.170;4.442;2023-12-28T12:34:10;12.70;99.90
25923;DHT22;13725;51.170;4.442;2023-12-28T12:36:37;12.80;99.90
25923;DHT22;13725;51.170;4.442;2023-12-28T12:39:03;12.50;99.90
25923;DHT22;13725;51.170;4.442;2023-12-28T12:41:35;12.50;99.90
25923;DHT22;13725;51.170;4.442;2023-12-28T12:44:01;12.40;99.90
25923;DHT22;13725;51.170;4.442;2023-12-28T12:46:27;12.50;99.90
25923;DHT22;13725;51.170;4.442;2023-12-28T12:49:00;12.50;99.90
25923;DHT22;13725;51.170;4.442;2023-12-28T12:51:29;12.50;99.90
25923;DHT22;13725;51.170;4.442;2023-12-28T12:53:59;12.50;99.90
25923;DHT22;13725;51.170;4.442;2023-12-28T12:56:28;12.50;99.90
25923;DHT22;13725;51.170;4.442;2023-12-28T12:58:54;12.40;99.90
25923;DHT22;13725;51.170;4.442;2023-12-28T13:01:20;12.30;99.90
25923;DHT22;13725;51.170;4.442;2023-12-28T13:03:46;12.40;99.90
25923;DHT22;13725;51.170;4.442;2023-12-28T13:06:13;12.30;99.90
25923;DHT22;13725;51.170;4.442;2023-12-28T13:08:39;12.40;99.90
25923;DHT22;13725;51.170;4.442;2023-12-28T13:11:05;12.30;99.90
25923;DHT22;13725;51.170;4.442;2023-12-28T13:13:34;12.30;99.90
25923;DHT22;13725;51.170;4.442;2023-12-28T13:16:00;12.40;99.90
25923;DHT22;13725;51.170;4.442;2023-12-28T13:18:29;12.40;99.90
25923;DHT22;13725;51.170;4.442;2023-12-28T13:20:55;12.30;99.90
25923;DHT22;13725;51.170;4.442;2023-12-28T13:23:20;12.30;99.90
25923;DHT22;13725;51.170;4.442;2023-12-28T13:25:46;12.30;99.90
25923;DHT22;13725;51.170;4.442;2023-12-28T13:28:12;12.40;99.90
25923;DHT22;13725;51.170;4.442;2023-12-28T13:30:40;12.30;99.90
25923;DHT22;13725;51.170;4.442;2023-12-28T13:33:06;12.20;99.90
25923;DHT22;13725;51.170;4.442;2023-12-28T13:35:32;12.20;99.90
25923;DHT22;13725;51.170;4.442;2023-12-28T13:38:01;12.20;99.90
25923;DHT22;13725;51.170;4.442;2023-12-28T13:40:28;12.30;99.90
25923;DHT22;13725;51.170;4.442;2023-12-28T13:42:54;12.30;99.90
25923;DHT22;13725;51.170;4.442;2023-12-28T13:45:19;12.30;99.90
25923;DHT22;13725;51.170;4.442;2023-12-28T13:47:45;12.30;99.90
25923;DHT22;13725;51.170;4.442;2023-12-28T13:50:11;12.20;99.90
25923;DHT22;13725;51.170;4.442;2023-12-28T13:52:37;12.20;99.90
25923;DHT22;13725;51.170;4.442;2023-12-28T13:55:02;12.30;99.90
25923;DHT22;13725;51.170;4.442;2023-12-28T13:57:28;12.30;99.90
25923;DHT22;13725;51.170;4.442;2023-12-28T13:59:54;12.30;99.90
25923;DHT22;13725;51.170;4.442;2023-12-28T14:02:22;12.40;99.90
25923;DHT22;13725;51.170;4.442;2023-12-28T14:04:49;12.40;99.90
25923;DHT22;13725;51.170;4.442;2023-12-28T14:07:16;12.40;99.90
25923;DHT22;13725;51.170;4.442;2023-12-28T14:09:42;12.20;99.90
25923;DHT22;13725;51.170;4.442;2023-12-28T14:12:08;12.20;99.90
25923;DHT22;13725;51.170;4.442;2023-12-28T14:14:33;12.20;99.90
25923;DHT22;13725;51.170;4.442;2023-12-28T14:16:59;12.20;99.90
25923;DHT22;13725;51.170;4.442;2023-12-28T14:19:25;12.20;99.90
25923;DHT22;13725;51.170;4.442;2023-12-28T14:21:51;12.10;99.90
25923;DHT22;13725;51.170;4.442;2023-12-28T14:24:17;12.10;99.90
25923;DHT22;13725;51.170;4.442;2023-12-28T14:26:44;12.00;99.90
25923;DHT22;13725;51.170;4.442;2023-12-28T14:29:11;12.10;99.90
25923;DHT22;13725;51.170;4.442;2023-12-28T14:31:37;12.00;99.90
25923;DHT22;13725;51.170;4.442;2023-12-28T14:34:03;11.90;99.90
25923;DHT22;13725;51.170;4.442;2023-12-28T14:36:33;12.00;99.90
25923;DHT22;13725;51.170;4.442;2023-12-28T14:39:00;11.90;99.90
25923;DHT22;13725;51.170;4.442;2023-12-28T14:41:26;12.00;99.90
25923;DHT22;13725;51.170;4.442;2023-12-28T14:43:56;12.00;99.90
25923;DHT22;13725;51.170;4.442;2023-12-28T14:46:27;11.80;99.90
25923;DHT22;13725;51.170;4.442;2023-12-28T14:48:53;11.90;99.90
25923;DHT22;13725;51.170;4.442;2023-12-28T14:51:19;11.80;99.90
25923;DHT22;13725;51.170;4.442;2023-12-28T14:53:45;11.70;99.90
25923;DHT22;13725;51.170;4.442;2023-12-28T14:56:11;11.70;99.90
25923;DHT22;13725;51.170;4.442;2023-12-28T14:58:41;11.70;99.90
25923;DHT22;13725;51.170;4.442;2023-12-28T15:01:11;11.70;99.90
25923;DHT22;13725;51.170;4.442;2023-12-28T15:03:37;11.60;99.90
25923;DHT22;13725;51.170;4.442;2023-12-28T15:06:06;11.50;99.90
25923;DHT22;13725;51.170;4.442;2023-12-28T15:08:32;11.50;99.90
25923;DHT22;13725;51.170;4.442;2023-12-28T15:10:58;11.50;99.90
25923;DHT22;13725;51.170;4.442;2023-12-28T15:13:25;11.50;99.90
25923;DHT22;13725;51.170;4.442;2023-12-28T15:15:51;11.40;99.90
25923;DHT22;13725;51.170;4.442;2023-12-28T15:18:19;11.40;99.90
25923;DHT22;13725;51.170;4.442;2023-12-28T15:20:49;11.40;99.90
25923;DHT22;13725;51.170;4.442;2023-12-28T15:23:16;11.50;99.90
25923;DHT22;13725;51.170;4.442;2023-12-28T15:25:47;11.50;99.90
25923;DHT22;13725;51.170;4.442;2023-12-28T15:28:13;11.60;99.90
25923;DHT22;13725;51.170;4.442;2023-12-28T15:30:39;11.70;99.90
25923;DHT22;13725;51.170;4.442;2023-12-28T15:33:05;11.70;99.90